createdAt,value
2023-03-11T00:00:30.191Z,10.90
2023-03-11T00:02:58.760Z,10.43
2023-03-11T00:05:33.730Z,7.78
2023-03-11T00:08:01.131Z,8.35
2023-03-11T00:10:31.691Z,9.23
2023-03-11T00:13:01.727Z,10.70
2023-03-11T00:15:29.154Z,8.23
2023-03-11T00:17:57.333Z,8.43
2023-03-11T00:20:27.156Z,9.77
2023-03-11T00:22:54.308Z,11.30
2023-03-11T00:25:22.031Z,8.23
2023-03-11T00:27:51.205Z,9.63
2023-03-11T00:30:21.521Z,8.07
2023-03-11T00:32:49.357Z,9.88
2023-03-11T00:35:18.104Z,9.80
2023-03-11T00:37:47.969Z,10.48
2023-03-11T00:40:16.444Z,12.98
2023-03-11T00:42:43.560Z,9.93
2023-03-11T00:45:11.408Z,9.10
2023-03-11T00:47:40.526Z,11.48
2023-03-11T00:50:14.130Z,9.60
2023-03-11T00:52:44.191Z,11.18
2023-03-11T00:55:15.576Z,9.48
2023-03-11T00:57:43.082Z,10.32
2023-03-11T01:00:16.573Z,8.82
2023-03-11T01:02:45.996Z,7.78
2023-03-11T01:05:13.065Z,8.20
2023-03-11T01:07:42.904Z,10.60
2023-03-11T01:10:14.894Z,7.68
2023-03-11T01:12:42.065Z,9.23
2023-03-11T01:15:12.136Z,7.40
2023-03-11T01:17:42.069Z,12.00
2023-03-11T01:20:14.836Z,9.13
2023-03-11T01:22:49.153Z,7.88
2023-03-11T01:25:19.650Z,8.50
2023-03-11T01:27:53.462Z,9.18
2023-03-11T01:30:24.448Z,10.77
2023-03-11T01:32:53.909Z,7.55
2023-03-11T01:35:24.526Z,10.15
2023-03-11T01:37:56.261Z,10.18
2023-03-11T01:40:33.700Z,8.40
2023-03-11T01:43:05.697Z,8.07
2023-03-11T01:45:39.443Z,7.75
2023-03-11T01:48:10.569Z,11.77
2023-03-11T01:50:46.598Z,9.25
2023-03-11T01:53:14.014Z,14.18
2023-03-11T01:55:43.820Z,10.50
2023-03-11T01:58:16.408Z,9.88
2023-03-11T02:00:48.148Z,7.15
2023-03-11T02:03:30.954Z,10.38
2023-03-11T02:05:58.405Z,9.38
2023-03-11T02:08:25.380Z,9.52
2023-03-11T02:10:54.914Z,9.35
2023-03-11T02:13:26.646Z,10.98
2023-03-11T02:15:56.131Z,10.90
2023-03-11T02:18:26.738Z,10.50
2023-03-11T02:21:17.996Z,9.82
2023-03-11T02:23:51.022Z,9.65
2023-03-11T02:26:25.079Z,8.20
2023-03-11T02:28:53.015Z,13.18
2023-03-11T02:31:29.855Z,8.48
2023-03-11T02:34:01.783Z,9.52
2023-03-11T02:36:44.627Z,11.07
2023-03-11T02:39:16.998Z,10.40
2023-03-11T02:41:47.416Z,6.82
2023-03-11T02:44:15.081Z,8.30
2023-03-11T02:46:49.758Z,10.90
2023-03-11T02:49:19.221Z,7.72
2023-03-11T02:51:46.222Z,7.93
2023-03-11T02:54:15.799Z,8.52
2023-03-11T02:56:46.419Z,5.43
2023-03-11T02:59:20.345Z,7.78
2023-03-11T03:01:52.551Z,8.60
2023-03-11T03:04:22.371Z,8.50
2023-03-11T03:06:49.559Z,7.28
2023-03-11T03:09:18.756Z,6.40
2023-03-11T03:11:45.749Z,7.78
2023-03-11T03:14:15.095Z,5.93
2023-03-11T03:16:42.307Z,6.90
2023-03-11T03:19:09.329Z,8.38
2023-03-11T03:21:36.558Z,10.43
2023-03-11T03:24:04.193Z,10.15
2023-03-11T03:26:40.474Z,7.95
2023-03-11T03:29:11.145Z,7.47
2023-03-11T03:31:41.808Z,6.40
2023-03-11T03:34:08.999Z,6.53
2023-03-11T03:36:39.188Z,6.25
2023-03-11T03:39:11.247Z,7.30
2023-03-11T03:41:38.257Z,5.80
2023-03-11T03:44:06.654Z,5.65
2023-03-11T03:46:42.111Z,8.77
2023-03-11T03:49:10.012Z,5.25
2023-03-11T03:51:39.651Z,5.10
2023-03-11T03:54:20.696Z,5.97
2023-03-11T03:56:49.973Z,4.88
2023-03-11T03:59:17.177Z,6.07
2023-03-11T04:01:49.859Z,9.27
2023-03-11T04:04:18.573Z,7.63
2023-03-11T04:06:47.610Z,4.30
2023-03-11T04:09:18.505Z,5.60
2023-03-11T04:11:45.986Z,5.70
2023-03-11T04:14:15.103Z,6.03
2023-03-11T04:16:50.125Z,7.13
2023-03-11T04:19:17.239Z,4.50
2023-03-11T04:21:48.923Z,7.00
2023-03-11T04:24:20.127Z,5.90
2023-03-11T04:26:49.855Z,8.02
2023-03-11T04:29:19.931Z,6.30
2023-03-11T04:31:54.979Z,5.90
2023-03-11T04:34:21.972Z,9.65
2023-03-11T04:36:55.090Z,9.13
2023-03-11T04:39:27.458Z,6.93
2023-03-11T04:41:57.538Z,9.13
2023-03-11T04:44:26.275Z,4.47
2023-03-11T04:46:53.318Z,8.77
2023-03-11T04:49:22.500Z,8.13
2023-03-11T04:51:50.982Z,4.72
2023-03-11T04:54:21.088Z,4.78
2023-03-11T04:56:52.856Z,5.43
2023-03-11T04:59:23.831Z,6.43
2023-03-11T05:01:52.158Z,10.75
2023-03-11T05:04:21.959Z,7.63
2023-03-11T05:06:51.274Z,4.32
2023-03-11T05:09:18.938Z,6.53
2023-03-11T05:11:48.539Z,5.15
2023-03-11T05:14:18.428Z,5.63
2023-03-11T05:16:48.062Z,4.28
2023-03-11T05:19:35.570Z,5.38
2023-03-11T05:22:13.824Z,6.90
2023-03-11T05:24:44.124Z,5.13
2023-03-11T05:27:11.569Z,6.75
2023-03-11T05:29:39.754Z,4.97
2023-03-11T05:32:19.262Z,4.00
2023-03-11T05:34:50.172Z,3.55
2023-03-11T05:37:22.911Z,4.45
2023-03-11T05:39:52.306Z,6.65
2023-03-11T05:42:24.913Z,4.47
2023-03-11T05:44:54.450Z,4.75
2023-03-11T05:47:25.251Z,6.32
2023-03-11T05:49:52.882Z,3.08
2023-03-11T05:52:20.759Z,5.05
2023-03-11T05:54:51.706Z,5.07
2023-03-11T05:57:22.710Z,7.95
2023-03-11T05:59:59.029Z,4.38
2023-03-11T06:02:33.870Z,4.88
2023-03-11T06:05:03.403Z,3.92
2023-03-11T06:07:35.603Z,4.68
2023-03-11T06:10:04.220Z,8.25
2023-03-11T06:12:38.981Z,3.42
2023-03-11T06:15:17.185Z,7.43
2023-03-11T06:17:44.759Z,3.72
2023-03-11T06:20:15.032Z,4.75
2023-03-11T06:22:45.376Z,4.82
2023-03-11T06:25:12.971Z,6.97
2023-03-11T06:27:41.717Z,5.43
2023-03-11T06:30:10.301Z,3.63
2023-03-11T06:32:47.622Z,4.50
2023-03-11T06:35:19.394Z,6.30
2023-03-11T06:37:51.903Z,4.82
2023-03-11T06:40:21.597Z,4.10
2023-03-11T06:42:50.968Z,6.63
2023-03-11T06:45:21.901Z,3.33
2023-03-11T06:47:52.235Z,4.35
2023-03-11T06:50:24.068Z,2.75
2023-03-11T06:52:57.353Z,2.90
2023-03-11T06:55:24.341Z,6.20
2023-03-11T06:57:53.672Z,6.65
2023-03-11T07:00:20.713Z,4.47
2023-03-11T07:02:55.624Z,3.75
2023-03-11T07:05:23.584Z,5.40
2023-03-11T07:07:55.758Z,5.05
2023-03-11T07:10:26.394Z,5.22
2023-03-11T07:12:53.419Z,3.85
2023-03-11T07:15:20.385Z,6.90
2023-03-11T07:17:47.403Z,4.68
2023-03-11T07:20:14.962Z,4.15
2023-03-11T07:22:41.932Z,4.47
2023-03-11T07:25:11.505Z,4.25
2023-03-11T07:27:42.998Z,4.03
2023-03-11T07:30:13.509Z,7.97
2023-03-11T07:32:42.741Z,5.03
2023-03-11T07:35:11.978Z,4.82
2023-03-11T07:37:38.887Z,5.43
2023-03-11T07:40:06.372Z,4.03
2023-03-11T07:42:34.898Z,4.78
2023-03-11T07:45:05.481Z,6.38
2023-03-11T07:47:32.427Z,5.18
2023-03-11T07:49:59.440Z,5.70
2023-03-11T07:52:26.408Z,10.13
2023-03-11T07:54:55.688Z,5.60
2023-03-11T07:57:24.832Z,6.97
2023-03-11T07:59:54.346Z,8.35
2023-03-11T08:02:21.361Z,5.60
2023-03-11T08:04:48.404Z,7.40
2023-03-11T08:07:17.626Z,7.60
2023-03-11T08:09:44.570Z,7.13
2023-03-11T08:12:18.208Z,4.70
2023-03-11T08:14:45.138Z,3.75
2023-03-11T08:17:12.237Z,6.70
2023-03-11T08:19:39.161Z,7.03
2023-03-11T08:22:08.376Z,5.85
2023-03-11T08:24:38.382Z,5.75
2023-03-11T08:27:05.406Z,5.30
2023-03-11T08:29:34.580Z,5.60
2023-03-11T08:32:04.827Z,5.38
2023-03-11T08:34:35.201Z,3.67
2023-03-11T08:37:02.607Z,6.57
2023-03-11T08:39:32.046Z,4.57
2023-03-11T08:42:03.140Z,3.92
2023-03-11T08:44:32.425Z,6.55
2023-03-11T08:47:02.501Z,3.38
2023-03-11T08:49:29.711Z,5.43
2023-03-11T08:51:56.705Z,4.25
2023-03-11T08:54:26.125Z,3.75
2023-03-11T08:56:53.051Z,7.05
2023-03-11T08:59:20.129Z,5.38
2023-03-11T09:01:47.090Z,6.57
2023-03-11T09:04:14.097Z,4.70
2023-03-11T09:06:46.478Z,2.53
2023-03-11T09:09:16.396Z,5.28
2023-03-11T09:11:45.525Z,3.70
2023-03-11T09:14:12.439Z,5.53
2023-03-11T09:16:39.366Z,4.53
2023-03-11T09:19:08.649Z,2.72
2023-03-11T09:21:38.080Z,4.25
2023-03-11T09:24:09.971Z,3.35
2023-03-11T09:26:41.537Z,6.97
2023-03-11T09:29:11.051Z,6.35
2023-03-11T09:31:44.879Z,8.45
2023-03-11T09:34:16.705Z,4.75
2023-03-11T09:36:43.975Z,5.97
2023-03-11T09:39:10.881Z,4.35
2023-03-11T09:41:57.813Z,3.67
2023-03-11T09:45:05.642Z,4.78
2023-03-11T09:47:55.669Z,5.35
2023-03-11T09:50:36.034Z,2.35
2023-03-11T09:53:08.824Z,3.65
2023-03-11T09:55:37.428Z,3.40
2023-03-11T09:58:23.121Z,3.88
2023-03-11T10:00:52.732Z,5.35
2023-03-11T10:03:27.242Z,4.57
2023-03-11T10:06:01.944Z,4.18
2023-03-11T10:08:40.709Z,4.38
2023-03-11T10:11:16.298Z,6.32
2023-03-11T10:13:57.096Z,5.28
2023-03-11T10:16:31.810Z,4.55
2023-03-11T10:19:01.583Z,3.63
2023-03-11T10:21:59.562Z,4.07
2023-03-11T10:27:41.881Z,5.20
2023-03-11T10:30:27.809Z,3.92
2023-03-11T10:33:03.639Z,3.08
2023-03-11T10:35:44.739Z,4.53
2023-03-11T10:38:27.207Z,4.25
2023-03-11T10:41:00.037Z,4.05
2023-03-11T10:43:40.207Z,6.30
2023-03-11T10:46:13.490Z,6.60
2023-03-11T10:48:42.693Z,5.35
2023-03-11T10:51:11.855Z,4.50
2023-03-11T10:53:55.247Z,4.80
2023-03-11T10:56:38.491Z,3.00
2023-03-11T10:59:21.576Z,5.65
2023-03-11T11:01:55.801Z,2.45
2023-03-11T11:04:39.646Z,3.47
2023-03-11T11:07:28.193Z,8.93
2023-03-11T11:10:17.293Z,4.38
2023-03-11T11:12:59.522Z,5.82
2023-03-11T11:15:26.519Z,3.45
2023-03-11T11:17:56.569Z,4.38
2023-03-11T11:20:28.949Z,5.38
2023-03-11T11:23:03.551Z,8.45
2023-03-11T11:25:43.077Z,5.80
2023-03-11T11:28:20.139Z,4.43
2023-03-11T11:31:06.591Z,4.70
2023-03-11T11:33:52.826Z,6.88
2023-03-11T11:36:27.771Z,4.63
2023-03-11T11:38:54.809Z,5.82
2023-03-11T11:41:23.465Z,4.47
2023-03-11T11:43:59.022Z,7.32
2023-03-11T11:46:38.323Z,5.20
2023-03-11T11:49:22.397Z,7.55
2023-03-11T11:51:52.130Z,6.75
2023-03-11T11:54:34.305Z,4.70
2023-03-11T11:57:03.735Z,6.25
2023-03-11T11:59:33.115Z,5.75
2023-03-11T12:02:37.697Z,3.33
2023-03-11T12:05:28.777Z,5.63
2023-03-11T12:08:23.823Z,4.78
2023-03-11T12:11:04.279Z,4.13
2023-03-11T12:14:04.453Z,4.10
2023-03-11T12:16:48.650Z,6.97
2023-03-11T12:19:41.624Z,2.60
2023-03-11T12:22:23.088Z,3.67
2023-03-11T12:25:22.047Z,3.35
2023-03-11T12:28:04.215Z,4.15
2023-03-11T12:30:33.799Z,2.80
2023-03-11T12:33:07.100Z,1.63
2023-03-11T12:35:39.159Z,4.13
2023-03-11T12:38:31.237Z,4.05
2023-03-11T12:41:04.772Z,3.22
2023-03-11T12:43:34.031Z,5.95
2023-03-11T12:46:04.502Z,3.30
2023-03-11T12:48:36.455Z,3.35
2023-03-11T12:51:06.465Z,3.38
2023-03-11T12:53:49.242Z,2.95
2023-03-11T12:56:31.335Z,2.55
2023-03-11T12:59:11.316Z,4.35
2023-03-11T13:02:03.494Z,2.22
2023-03-11T13:04:31.717Z,4.57
2023-03-11T13:07:04.273Z,4.43
2023-03-11T13:09:38.733Z,4.45
2023-03-11T13:12:45.913Z,2.03
2023-03-11T13:15:18.854Z,3.75
2023-03-11T13:18:02.093Z,3.58
2023-03-11T13:20:41.539Z,4.65
2023-03-11T13:23:14.626Z,2.38
2023-03-11T13:25:55.804Z,3.90
2023-03-11T13:28:40.112Z,2.17
2023-03-11T13:31:42.256Z,3.60
2023-03-11T13:34:30.588Z,2.63
2023-03-11T13:37:26.819Z,3.38
2023-03-11T13:40:14.105Z,3.20
2023-03-11T13:42:47.088Z,4.60
2023-03-11T13:45:29.940Z,3.13
2023-03-11T13:48:16.228Z,3.38
2023-03-11T13:50:51.877Z,3.40
2023-03-11T13:53:26.094Z,3.42
2023-03-11T13:55:53.097Z,2.75
2023-03-11T13:58:27.209Z,5.32
2023-03-11T14:00:54.401Z,4.30
2023-03-11T14:03:25.543Z,2.22
2023-03-11T14:06:05.986Z,1.95
2023-03-11T14:08:36.954Z,2.70
2023-03-11T14:11:10.410Z,5.20
2023-03-11T14:13:48.198Z,3.13
2023-03-11T14:16:20.126Z,4.22
2023-03-11T14:18:52.931Z,4.07
2023-03-11T14:21:23.988Z,3.72
2023-03-11T14:23:54.739Z,3.53
2023-03-11T14:26:31.073Z,3.03
2023-03-11T14:28:59.762Z,4.38
2023-03-11T14:31:40.415Z,5.50
2023-03-11T14:34:12.589Z,4.50
2023-03-11T14:37:23.255Z,3.50
2023-03-11T14:39:54.580Z,4.00
2023-03-11T14:42:34.873Z,3.40
2023-03-11T14:45:18.058Z,2.08
2023-03-11T14:47:44.960Z,5.28
2023-03-11T14:50:16.916Z,4.18
2023-03-11T14:52:49.102Z,4.53
2023-03-11T14:55:21.520Z,3.22
2023-03-11T14:57:59.872Z,4.00
2023-03-11T15:00:33.629Z,2.28
2023-03-11T15:03:22.016Z,3.13
2023-03-11T15:05:54.421Z,1.83
2023-03-11T15:08:22.699Z,4.80
2023-03-11T15:11:10.750Z,3.78
2023-03-11T15:13:40.605Z,2.42
2023-03-11T15:16:30.707Z,2.67
2023-03-11T15:19:23.036Z,3.90
2023-03-11T15:21:55.303Z,4.30
2023-03-11T15:24:32.168Z,2.72
2023-03-11T15:27:08.894Z,3.22
2023-03-11T15:29:36.240Z,4.32
2023-03-11T15:32:25.223Z,3.92
2023-03-11T15:35:22.528Z,2.97
2023-03-11T15:37:52.477Z,5.20
2023-03-11T15:40:44.463Z,3.30
2023-03-11T15:43:15.304Z,2.97
2023-03-11T15:45:46.801Z,6.10
2023-03-11T15:48:16.231Z,3.67
2023-03-11T15:50:56.890Z,6.40
2023-03-11T15:53:36.768Z,3.70
2023-03-11T15:56:08.279Z,3.83
2023-03-11T15:58:36.681Z,4.20
2023-03-11T16:01:08.496Z,2.05
2023-03-11T16:06:09.889Z,4.50
2023-03-11T16:08:38.977Z,3.58
2023-03-11T16:11:11.185Z,5.05
2023-03-11T16:13:38.201Z,5.05
2023-03-11T16:16:05.634Z,5.93
2023-03-11T16:18:36.333Z,2.28
2023-03-11T16:21:08.540Z,6.47
2023-03-11T16:23:50.157Z,2.78
2023-03-11T16:26:22.963Z,4.57
2023-03-11T16:28:49.958Z,2.95
2023-03-11T16:31:17.028Z,3.60
2023-03-11T16:33:46.149Z,2.63
2023-03-11T16:36:13.113Z,4.80
2023-03-11T16:38:47.395Z,4.55
2023-03-11T16:41:16.806Z,4.00
2023-03-11T16:43:48.526Z,3.58
2023-03-11T16:46:15.562Z,3.72
2023-03-11T16:48:42.568Z,3.15
2023-03-11T16:51:09.539Z,2.53
2023-03-11T16:53:38.573Z,3.95
2023-03-11T16:56:06.063Z,7.18
2023-03-11T16:58:37.868Z,2.13
2023-03-11T17:01:07.272Z,4.20
2023-03-11T17:03:42.501Z,4.00
2023-03-11T17:06:12.246Z,4.47
2023-03-11T17:08:46.152Z,2.70
2023-03-11T17:11:19.778Z,5.57
2023-03-11T17:13:46.741Z,6.82
2023-03-11T17:16:13.729Z,5.53
2023-03-11T17:18:43.066Z,4.00
2023-03-11T17:21:11.472Z,4.85
2023-03-11T17:23:40.693Z,1.92
2023-03-11T17:26:15.712Z,4.10
2023-03-11T17:28:42.897Z,4.65
2023-03-11T17:31:14.843Z,3.95
2023-03-11T17:33:44.618Z,2.72
2023-03-11T17:36:15.996Z,2.40
2023-03-11T17:38:47.100Z,2.20
2023-03-11T17:41:17.242Z,3.67
2023-03-11T17:43:51.367Z,5.05
2023-03-11T17:46:22.561Z,5.82
2023-03-11T17:48:52.092Z,4.03
2023-03-11T17:51:25.787Z,5.00
2023-03-11T17:53:56.412Z,5.32
2023-03-11T17:56:23.627Z,5.13
2023-03-11T17:58:50.809Z,4.22
2023-03-11T18:01:22.171Z,3.60
2023-03-11T18:03:49.601Z,5.57
2023-03-11T18:06:17.934Z,4.40
2023-03-11T18:08:44.864Z,4.30
2023-03-11T18:11:18.593Z,4.28
2023-03-11T18:13:46.191Z,4.78
2023-03-11T18:16:21.586Z,4.13
2023-03-11T18:18:54.488Z,4.95
2023-03-11T18:21:23.315Z,6.90
2023-03-11T18:23:55.324Z,9.20
2023-03-11T18:26:30.396Z,6.38
2023-03-11T18:29:03.476Z,6.03
2023-03-11T18:31:30.722Z,6.95
2023-03-11T18:34:12.228Z,8.35
2023-03-11T18:36:39.475Z,4.90
2023-03-11T18:39:12.570Z,5.65
2023-03-11T18:41:42.768Z,6.20
2023-03-11T18:44:14.825Z,5.43
2023-03-11T18:46:42.551Z,7.35
2023-03-11T18:49:13.028Z,6.93
2023-03-11T18:51:41.086Z,5.60
2023-03-11T18:54:15.226Z,5.00
2023-03-11T18:56:42.225Z,7.10
2023-03-11T18:59:13.569Z,5.80
2023-03-11T19:01:40.564Z,6.13
2023-03-11T19:04:07.532Z,8.20
2023-03-11T19:06:34.556Z,6.72
2023-03-11T19:09:01.691Z,6.57
2023-03-11T19:11:28.629Z,9.38
2023-03-11T19:13:55.639Z,7.75
2023-03-11T19:16:32.080Z,6.68
2023-03-11T19:19:01.616Z,7.50
2023-03-11T19:21:30.922Z,6.60
2023-03-11T19:24:00.515Z,9.40
2023-03-11T19:26:43.288Z,6.13
2023-03-11T19:29:18.044Z,7.65
2023-03-11T19:31:52.158Z,7.88
2023-03-11T19:34:21.442Z,6.88
2023-03-11T19:36:48.483Z,6.55
2023-03-11T19:39:20.121Z,7.70
2023-03-11T19:41:49.175Z,8.55
2023-03-11T19:44:16.325Z,8.25
2023-03-11T19:46:43.303Z,7.93
2023-03-11T19:49:12.515Z,6.15
2023-03-11T19:51:49.592Z,5.63
2023-03-11T19:54:17.683Z,5.80
2023-03-11T19:56:44.931Z,7.68
2023-03-11T19:59:12.079Z,8.63
2023-03-11T20:01:43.831Z,5.93
2023-03-11T20:04:11.224Z,7.97
2023-03-11T20:06:38.435Z,7.68
2023-03-11T20:09:06.913Z,9.13
2023-03-11T20:11:39.166Z,6.18
2023-03-11T20:14:08.504Z,10.23
2023-03-11T20:16:37.837Z,7.05
2023-03-11T20:19:04.899Z,6.15
2023-03-11T20:21:32.255Z,9.10
2023-03-11T20:23:59.230Z,11.05
2023-03-11T20:26:28.413Z,7.78
2023-03-11T20:28:56.150Z,8.07
2023-03-11T20:31:23.929Z,8.85
2023-03-11T20:33:51.163Z,8.50
2023-03-11T20:36:22.722Z,8.23
2023-03-11T20:38:50.509Z,10.18
2023-03-11T20:41:17.559Z,8.38
2023-03-11T20:43:47.035Z,10.57
2023-03-11T20:46:14.085Z,10.88
2023-03-11T20:48:41.211Z,9.45
2023-03-11T20:51:16.539Z,8.63
2023-03-11T20:53:43.728Z,12.40
2023-03-11T20:56:12.935Z,13.52
2023-03-11T20:58:39.961Z,12.40
2023-03-11T21:01:12.311Z,10.52
2023-03-11T21:03:39.501Z,9.38
2023-03-11T21:06:13.753Z,10.15
2023-03-11T21:08:43.188Z,10.23
2023-03-11T21:11:12.214Z,9.82
2023-03-11T21:13:44.890Z,10.18
2023-03-11T21:16:14.512Z,10.70
2023-03-11T21:18:43.439Z,9.40
2023-03-11T21:21:11.829Z,13.52
2023-03-11T21:23:42.107Z,10.48
2023-03-11T21:26:11.584Z,9.77
2023-03-11T21:28:42.358Z,9.70
2023-03-11T21:31:11.247Z,10.32
2023-03-11T21:33:39.194Z,11.35
2023-03-11T21:36:08.881Z,10.82
2023-03-11T21:38:40.798Z,12.07
2023-03-11T21:41:16.855Z,11.88
2023-03-11T21:43:44.154Z,11.52
2023-03-11T21:46:13.291Z,11.27
2023-03-11T21:48:42.555Z,11.90
2023-03-11T21:51:09.596Z,11.48
2023-03-11T21:53:36.881Z,12.65
2023-03-11T21:56:06.580Z,13.75
2023-03-11T21:58:33.693Z,12.27
2023-03-11T22:01:00.937Z,10.80
2023-03-11T22:03:28.192Z,12.52
2023-03-11T22:05:59.337Z,10.73
2023-03-11T22:08:28.795Z,10.82
2023-03-11T22:10:58.244Z,12.20
2023-03-11T22:13:25.295Z,12.32
2023-03-11T22:15:54.861Z,11.60
2023-03-11T22:18:23.979Z,11.35
2023-03-11T22:20:50.900Z,12.18
2023-03-11T22:23:20.053Z,11.15
2023-03-11T22:25:46.998Z,11.50
2023-03-11T22:28:16.438Z,11.13
2023-03-11T22:30:45.618Z,11.68
2023-03-11T22:33:14.680Z,11.55
2023-03-11T22:35:55.136Z,12.13
2023-03-11T22:38:26.737Z,11.75
2023-03-11T22:40:56.404Z,12.10
2023-03-11T22:43:25.552Z,11.38
2023-03-11T22:46:02.143Z,12.18
2023-03-11T22:48:29.289Z,12.40
2023-03-11T22:50:58.518Z,11.98
2023-03-11T22:53:25.495Z,15.57
2023-03-11T22:55:55.072Z,12.85
2023-03-11T22:58:22.118Z,11.43
2023-03-11T23:00:51.581Z,14.90
2023-03-11T23:03:23.212Z,14.45
2023-03-11T23:05:52.521Z,15.05
2023-03-11T23:08:21.949Z,12.70
2023-03-11T23:10:51.389Z,14.18
2023-03-11T23:13:18.517Z,13.88
2023-03-11T23:15:46.184Z,12.88
2023-03-11T23:18:13.408Z,14.80
2023-03-11T23:20:40.994Z,14.90
2023-03-11T23:23:08.608Z,13.80
2023-03-11T23:25:35.818Z,12.10
2023-03-11T23:28:06.452Z,10.32
2023-03-11T23:30:33.459Z,11.85
2023-03-11T23:33:02.868Z,9.98
2023-03-11T23:35:32.578Z,9.85
2023-03-11T23:37:59.829Z,9.00
2023-03-11T23:40:32.104Z,8.02
2023-03-11T23:43:00.500Z,7.50
2023-03-11T23:45:27.525Z,8.00
2023-03-11T23:47:54.495Z,8.88
2023-03-11T23:50:21.409Z,9.30
2023-03-11T23:52:48.388Z,7.95
2023-03-11T23:55:15.330Z,8.50
2023-03-11T23:57:42.289Z,6.47
